Ocoee 1 Observed Data For Previous 48 Hours

Caption
Day and Hour Reservoir Elevation (behind dam)* Tailwater Elevation (below dam)* Average Hourly Discharge*
1/15/2018 2 AM EST 828.08 714.85 650
1/15/2018 3 AM EST 828.06 714.86 651
1/15/2018 4 AM EST 828.03 714.86 651
1/15/2018 5 AM EST 828.03 714.85 651
1/15/2018 6 AM EST 828.05 714.85 648
1/15/2018 7 AM EST 828.06 714.85 650
1/15/2018 8 AM EST 828.10 714.86 652
1/15/2018 9 AM EST 828.10 714.86 650
1/15/2018 10 AM EST 828.12 714.85 650
1/15/2018 11 AM EST 828.13 714.85 650
1/15/2018 12 PM EST 828.15 714.85 651
1/15/2018 1 PM EST 828.12 713.14 3
1/15/2018 2 PM EST 828.13 713.11 0
1/15/2018 3 PM EST 828.14 713.41 10
1/15/2018 4 PM EST 828.11 713.90 594
1/15/2018 5 PM EST 828.12 713.13 0
1/15/2018 6 PM EST 828.15 713.11 0
1/15/2018 7 PM EST 828.20 713.50 14
1/15/2018 8 PM EST 828.21 713.90 595
1/15/2018 9 PM EST 828.26 713.13 0
1/15/2018 10 PM EST 828.31 713.11 0
1/15/2018 11 PM EST 828.35 713.37 8
1/16/2018 12 AM EST 828.36 714.82 642
1/16/2018 1 AM EST 828.38 714.81 643
1/16/2018 2 AM EST 828.37 714.81 643
1/16/2018 3 AM EST 828.39 713.14 4
1/16/2018 4 AM EST 828.39 713.11 0
1/16/2018 5 AM EST 828.38 713.52 13
1/16/2018 6 AM EST 828.33 715.95 1,314
1/16/2018 7 AM EST 828.30 715.94 1,315
1/16/2018 8 AM EST 828.30 715.95 1,310
1/16/2018 9 AM EST 828.28 715.97 1,317
1/16/2018 10 AM EST 828.33 713.16 11
1/16/2018 11 AM EST 828.37 713.12 0
1/16/2018 12 PM EST 828.41 713.53 15
1/16/2018 1 PM EST 828.43 713.90 594
1/16/2018 2 PM EST 828.48 713.13 0
1/16/2018 3 PM EST 828.52 713.12 0
1/16/2018 4 PM EST 828.54 713.54 13
1/16/2018 5 PM EST 828.49 715.93 1,187
1/16/2018 6 PM EST 828.43 717.36 1,461
1/16/2018 7 PM EST 828.31 718.64 3,352
1/16/2018 8 PM EST 828.18 718.66 3,356
1/16/2018 9 PM EST 828.14 716.95 1,989
1/16/2018 10 PM EST 828.13 716.94 1,976
1/16/2018 11 PM EST 828.14 715.91 1,299
1/17/2018 12 AM EST 828.16 714.81 637
1/17/2018 1 AM EST 828.19 714.81 632
1/17/2018 2 AM EST 828.22 714.81 633
1/17/2018 3 AM EST 828.24 714.81 633
1/17/2018 4 AM EST 828.26 714.95 637
1/17/2018 5 AM EST 828.25 716.10 1,316
1/17/2018 6 AM EST 828.23 717.00 1,995
1/17/2018 7 AM EST 828.16 718.01 2,705
1/17/2018 8 AM EST 828.08 718.67 3,355
1/17/2018 9 AM EST 828.01 718.67 3,367
1/17/2018 10 AM EST 827.93 718.66 3,362
1/17/2018 11 AM EST 827.90 716.00 2,048
1/17/2018 12 PM EST 827.93 714.81 638
1/17/2018 1 PM EST 827.95 714.81 634
1/17/2018 2 PM EST 827.99 714.81 633
1/17/2018 3 PM EST 828.01 714.81 631
1/17/2018 4 PM EST 828.05 714.81 632
1/17/2018 5 PM EST 828.08 714.81 635
1/17/2018 6 PM EST 828.08 714.95 639
1/17/2018 7 PM EST 828.07 716.13 1,320
1/17/2018 8 PM EST 828.05 716.96 2,004
1/17/2018 9 PM EST 828.04 716.98 2,011
1/17/2018 10 PM EST 828.03 715.94 1,315

Elevations are in feet above sea level. Discharges are in cubic feet per second and are reported at the end of the hour.